Time;durP1;ratioP1;P1;durP2;ratioP2;P2;SDS_P1;SDS_P2;PMS_P1;PMS_P2;Temp;Humidity;BMP_temperature;BMP_pressure;BME280_temperature;BME280_humidity;BME280_pressure;Samples;Min_cycle;Max_cycle;Signal;HPM_P1;HPM_P2
2022/04/24 00:00:13;;;;;;;19.75;16.88;;;;;;;11.16;100.00;99620.03;5113301;27;20025;-67
2022/04/24 00:02:39;;;;;;;21.75;17.67;;;;;;;11.16;100.00;99627.28;5132047;27;20433;-74
2022/04/24 00:05:05;;;;;;;23.67;17.92;;;;;;;11.09;100.00;99616.31;5132829;27;20750;-74
2022/04/24 00:07:31;;;;;;;20.23;16.50;;;;;;;11.09;100.00;99619.00;5131607;28;20027;-65
2022/04/24 00:09:56;;;;;;;22.60;17.45;;;;;;;11.06;100.00;99613.94;5113229;28;20023;-66
2022/04/24 00:12:22;;;;;;;21.80;18.08;;;;;;;11.06;100.00;99615.78;5113114;28;20027;-66
2022/04/24 00:14:48;;;;;;;23.33;19.33;;;;;;;11.02;100.00;99615.25;5131449;28;20047;-66
2022/04/24 00:17:16;;;;;;;24.95;19.58;;;;;;;11.00;100.00;99617.22;5131559;28;20046;-67
2022/04/24 00:19:44;;;;;;;25.48;19.23;;;;;;;10.94;100.00;99614.34;5132176;27;20043;-67
2022/04/24 00:22:10;;;;;;;24.92;18.02;;;;;;;10.99;100.00;99617.38;5135500;27;20099;-67
2022/04/24 00:24:35;;;;;;;23.70;18.48;;;;;;;10.95;100.00;99619.53;5136467;27;20733;-73
2022/04/24 00:27:01;;;;;;;23.48;18.90;;;;;;;10.95;100.00;99611.50;5136517;27;20027;-73
2022/04/24 00:29:26;;;;;;;24.45;19.45;;;;;;;10.93;100.00;99613.47;5136512;27;20023;-74
2022/04/24 00:31:52;;;;;;;21.83;18.40;;;;;;;10.91;100.00;99607.44;5136632;27;20072;-74
2022/04/24 00:34:17;;;;;;;23.48;18.42;;;;;;;10.92;100.00;99614.47;5118021;27;20027;-74
2022/04/24 00:36:45;;;;;;;23.58;18.40;;;;;;;10.93;100.00;99615.34;5136424;27;20027;-73
2022/04/24 00:39:11;;;;;;;25.58;19.95;;;;;;;10.90;100.00;99615.66;5118009;27;20023;-73
2022/04/24 00:41:44;;;;;;;24.55;18.35;;;;;;;10.86;100.00;99607.03;5136522;27;20030;-73
2022/04/24 00:44:10;;;;;;;23.05;18.65;;;;;;;10.85;100.00;99602.69;5136466;27;20034;-74
2022/04/24 00:46:45;;;;;;;24.17;19.48;;;;;;;10.85;100.00;99591.09;5136393;27;20015;-73
2022/04/24 00:49:12;;;;;;;22.80;18.38;;;;;;;10.82;100.00;99594.09;5117642;27;20038;-74
2022/04/24 00:51:42;;;;;;;21.80;18.13;;;;;;;10.81;100.00;99582.50;5135992;27;20043;-73
2022/04/24 00:54:09;;;;;;;23.85;18.95;;;;;;;10.77;100.00;99572.28;5136003;27;20023;-72
2022/04/24 00:56:36;;;;;;;23.30;18.38;;;;;;;10.73;100.00;99568.19;5135844;27;20061;-74
2022/04/24 00:59:03;;;;;;;26.67;19.52;;;;;;;10.66;100.00;99556.41;5136039;27;20501;-73
2022/04/24 01:01:30;;;;;;;24.05;18.63;;;;;;;10.69;100.00;99569.50;5117429;27;20083;-73
2022/04/24 01:04:02;;;;;;;26.60;19.92;;;;;;;10.64;100.00;99561.09;5135876;27;20462;-72
2022/04/24 01:06:34;;;;;;;22.65;18.98;;;;;;;10.63;100.00;99560.25;5136017;27;20054;-73
2022/04/24 01:09:17;;;;;;;23.98;18.30;;;;;;;10.62;100.00;99573.78;5135928;27;20102;-73
2022/04/24 01:11:46;;;;;;;24.92;19.88;;;;;;;10.55;100.00;99578.09;5135809;27;20042;-73
2022/04/24 01:14:12;;;;;;;25.48;19.15;;;;;;;10.55;100.00;99578.91;5132962;27;20086;-72
2022/04/24 01:16:38;;;;;;;24.30;18.92;;;;;;;10.53;100.00;99580.91;5135193;27;20042;-67
2022/04/24 01:19:05;;;;;;;22.33;18.58;;;;;;;10.57;100.00;99600.22;5134620;27;20039;-66
2022/04/24 01:21:32;;;;;;;23.90;19.92;;;;;;;10.49;100.00;99579.53;5134605;27;20031;-65
2022/04/24 01:23:57;;;;;;;22.90;18.65;;;;;;;10.55;100.00;99573.56;5134631;27;20046;-66
2022/04/24 01:26:23;;;;;;;26.45;21.00;;;;;;;10.55;100.00;99580.78;5134566;27;20023;-66
2022/04/24 01:28:48;;;;;;;25.10;19.52;;;;;;;10.54;100.00;99568.34;5134446;27;20019;-71
2022/04/24 01:31:14;;;;;;;24.98;19.88;;;;;;;10.52;100.00;99573.88;5132986;27;20119;-72
2022/04/24 01:33:39;;;;;;;25.20;19.55;;;;;;;10.54;100.00;99573.69;5133769;27;20035;-73
2022/04/24 01:36:05;;;;;;;28.40;21.17;;;;;;;10.51;100.00;99563.31;5133760;27;20040;-72
2022/04/24 01:38:30;;;;;;;26.33;20.73;;;;;;;10.50;100.00;99561.59;5133843;27;20460;-72
2022/04/24 01:40:56;;;;;;;28.35;21.75;;;;;;;10.52;100.00;99560.47;5133655;27;20023;-71
2022/04/24 01:43:22;;;;;;;30.10;21.77;;;;;;;10.51;100.00;99574.03;5133666;27;20019;-71
2022/04/24 01:45:47;;;;;;;27.80;21.58;;;;;;;10.44;100.00;99559.53;5115097;27;20023;-72
2022/04/24 01:48:13;;;;;;;26.35;19.95;;;;;;;10.43;100.00;99561.38;5133661;27;20051;-73
2022/04/24 01:50:38;;;;;;;28.58;21.25;;;;;;;10.43;100.00;99560.53;5133468;27;20031;-72
2022/04/24 01:53:04;;;;;;;29.13;21.50;;;;;;;10.32;100.00;99545.50;5133454;27;20046;-72
2022/04/24 01:55:29;;;;;;;29.38;21.55;;;;;;;10.40;100.00;99566.19;5133434;27;20038;-72
2022/04/24 01:57:55;;;;;;;25.77;20.70;;;;;;;10.36;100.00;99549.59;5133344;27;20030;-72
2022/04/24 02:00:20;;;;;;;28.20;21.80;;;;;;;10.42;100.00;99559.69;5133763;27;20034;-66
2022/04/24 02:02:47;;;;;;;29.83;21.23;;;;;;;10.35;100.00;99555.09;5134665;27;20019;-66
2022/04/24 02:05:13;;;;;;;30.08;22.83;;;;;;;10.37;100.00;99561.13;5134444;27;20055;-66
2022/04/24 02:07:38;;;;;;;27.48;20.92;;;;;;;10.27;100.00;99542.47;5134673;27;20356;-64
2022/04/24 02:10:04;;;;;;;27.95;21.52;;;;;;;10.31;100.00;99542.97;5134725;27;20035;-66
2022/04/24 02:12:30;;;;;;;29.63;23.30;;;;;;;10.28;100.00;99549.50;5134413;27;20023;-65
2022/04/24 02:14:56;;;;;;;28.15;21.48;;;;;;;10.29;100.00;99543.13;5134541;27;20069;-65
2022/04/24 02:17:21;;;;;;;28.23;22.27;;;;;;;10.21;100.00;99532.34;5134521;27;20030;-65
2022/04/24 02:19:47;;;;;;;32.50;23.17;;;;;;;10.28;100.00;99544.13;5134447;27;20544;-65
2022/04/24 02:22:12;;;;;;;30.75;23.00;;;;;;;10.26;100.00;99537.25;5116015;27;20038;-65
2022/04/24 02:24:38;;;;;;;31.02;22.27;;;;;;;10.22;100.00;99534.00;5133281;27;20098;-66
2022/04/24 02:27:03;;;;;;;30.75;23.80;;;;;;;10.24;100.00;99532.03;5132771;27;20025;-65
2022/04/24 02:29:29;;;;;;;28.48;22.42;;;;;;;10.18;100.00;99529.09;5132541;27;20126;-66
2022/04/24 02:31:54;;;;;;;30.65;22.40;;;;;;;10.23;100.00;99532.19;5132667;27;20027;-65
2022/04/24 02:34:20;;;;;;;34.00;24.98;;;;;;;10.20;100.00;99530.66;5132473;27;20026;-66
2022/04/24 02:36:45;;;;;;;32.47;24.33;;;;;;;10.21;100.00;99528.81;5132703;27;20475;-67
2022/04/24 02:39:11;;;;;;;31.33;23.95;;;;;;;10.13;100.00;99526.06;5132666;27;20034;-67
2022/04/24 02:41:36;;;;;;;33.05;24.15;;;;;;;10.14;100.00;99530.41;5132357;27;20015;-65
2022/04/24 02:44:02;;;;;;;29.30;22.75;;;;;;;10.12;100.00;99530.56;5131174;27;20026;-66
2022/04/24 02:46:27;;;;;;;33.03;23.48;;;;;;;10.15;100.00;99538.28;5132316;27;20634;-66
2022/04/24 02:48:53;;;;;;;32.30;24.73;;;;;;;10.09;100.00;99530.03;5132593;27;20034;-66
2022/04/24 02:51:19;;;;;;;33.72;25.38;;;;;;;10.13;100.00;99542.13;5132175;27;20043;-67
2022/04/24 02:53:44;;;;;;;29.55;22.80;;;;;;;10.07;100.00;99521.28;5132306;27;20031;-66
2022/04/24 02:56:10;;;;;;;32.08;24.10;;;;;;;10.06;100.00;99531.16;5113822;27;20540;-65
2022/04/24 02:58:38;;;;;;;31.73;24.08;;;;;;;10.08;100.00;99537.22;5131946;27;20027;-66
2022/04/24 03:01:03;;;;;;;32.17;24.83;;;;;;;10.02;100.00;99528.91;5113741;27;20052;-66
2022/04/24 03:03:29;;;;;;;32.00;24.83;;;;;;;10.05;100.00;99534.81;5132239;27;20031;-66
2022/04/24 03:05:54;;;;;;;35.22;26.38;;;;;;;10.02;100.00;99535.09;5132056;27;20031;-66
2022/04/24 03:08:20;;;;;;;35.72;26.27;;;;;;;9.98;100.00;99520.34;5132423;27;20055;-66
2022/04/24 03:10:46;;;;;;;34.75;25.33;;;;;;;10.01;100.00;99533.44;5132470;27;20030;-66
2022/04/24 03:13:12;;;;;;;37.45;25.60;;;;;;;9.97;100.00;99529.38;5123461;27;20035;-66
2022/04/24 03:15:38;;;;;;;35.53;25.77;;;;;;;9.97;100.00;99521.34;5115265;27;20055;-66
2022/04/24 03:18:04;;;;;;;35.42;25.08;;;;;;;9.98;100.00;99531.03;5117506;27;20110;-66
2022/04/24 03:20:30;;;;;;;35.03;24.98;;;;;;;9.94;100.00;99518.97;5132503;27;20083;-66
2022/04/24 03:22:56;;;;;;;36.33;27.17;;;;;;;9.95;100.00;99523.31;5114063;27;20019;-66
2022/04/24 03:25:22;;;;;;;37.55;26.92;;;;;;;9.92;100.00;99523.59;5127514;27;20535;-66
2022/04/24 03:27:47;;;;;;;35.00;26.27;;;;;;;9.96;100.00;99524.16;5132269;27;20035;-72
2022/04/24 03:30:13;;;;;;;32.17;25.60;;;;;;;9.93;100.00;99519.09;5129127;27;20106;-73
2022/04/24 03:32:39;;;;;;;35.50;25.17;;;;;;;9.91;100.00;99513.91;5126081;27;20027;-71
2022/04/24 03:35:06;;;;;;;37.50;27.50;;;;;;;9.79;100.00;99500.84;5111371;27;20019;-71
2022/04/24 03:37:32;;;;;;;37.28;27.20;;;;;;;9.89;100.00;99515.88;5129786;27;20364;-71
2022/04/24 03:39:58;;;;;;;38.03;26.75;;;;;;;9.87;100.00;99515.16;5129706;27;20042;-72
2022/04/24 03:42:25;;;;;;;34.35;25.75;;;;;;;9.88;100.00;99514.19;5111121;27;20070;-72
2022/04/24 03:44:53;;;;;;;39.58;27.10;;;;;;;9.87;100.00;99519.69;5130694;27;20019;-71
2022/04/24 03:47:19;;;;;;;37.83;27.42;;;;;;;9.86;100.00;99524.19;5106137;27;20116;-71
2022/04/24 03:49:45;;;;;;;37.28;26.73;;;;;;;9.78;100.00;99518.75;5131273;27;20056;-72
2022/04/24 03:52:11;;;;;;;40.33;27.63;;;;;;;9.85;100.00;99535.91;5131540;27;20038;-71
2022/04/24 03:54:37;;;;;;;37.38;26.70;;;;;;;9.79;100.00;99516.91;5131302;27;20035;-72
2022/04/24 03:57:02;;;;;;;44.67;28.73;;;;;;;9.87;100.00;99533.91;5133040;27;20030;-71
2022/04/24 03:59:29;;;;;;;34.38;25.92;;;;;;;9.74;100.00;99511.19;5133059;27;20519;-71
2022/04/24 04:01:54;;;;;;;43.08;26.50;;;;;;;9.88;100.00;99532.09;5114624;27;20026;-72
2022/04/24 04:04:20;;;;;;;39.20;28.10;;;;;;;9.91;100.00;99535.31;5133037;27;20059;-72
2022/04/24 04:06:45;;;;;;;38.83;26.70;;;;;;;9.90;100.00;99522.91;5107154;27;20023;-72
2022/04/24 04:09:11;;;;;;;41.00;29.17;;;;;;;9.98;100.00;99532.88;5132973;27;20035;-73
2022/04/24 04:11:36;;;;;;;39.40;28.65;;;;;;;9.90;100.00;99512.19;5132795;28;20031;-72
2022/04/24 04:14:01;;;;;;;39.42;28.50;;;;;;;10.02;100.00;99518.19;5133088;28;20039;-71
2022/04/24 04:16:27;;;;;;;37.10;26.38;;;;;;;9.99;100.00;99508.63;5097450;28;20043;-71
2022/04/24 04:18:53;;;;;;;38.10;28.67;;;;;;;10.06;100.00;99515.09;5133154;28;20375;-71
2022/04/24 04:21:18;;;;;;;40.15;27.98;;;;;;;10.07;100.00;99510.56;5132944;28;20110;-72
2022/04/24 04:23:43;;;;;;;41.28;28.00;;;;;;;10.08;100.00;99496.19;5131990;28;20027;-66
2022/04/24 04:26:09;;;;;;;40.78;29.63;;;;;;;10.08;100.00;99501.53;5113497;28;20034;-65
2022/04/24 04:28:34;;;;;;;36.97;26.92;;;;;;;10.13;100.00;99500.09;5131879;28;20034;-65
2022/04/24 04:31:00;;;;;;;37.15;26.75;;;;;;;10.09;100.00;99484.50;5131965;28;20119;-65
2022/04/24 04:33:25;;;;;;;37.42;27.42;;;;;;;10.16;100.00;99486.38;5132165;28;20019;-66
2022/04/24 04:35:51;;;;;;;45.38;30.05;;;;;;;10.14;100.00;99476.81;5131592;28;20052;-65
2022/04/24 04:38:16;;;;;;;39.25;28.40;;;;;;;10.22;100.00;99479.59;5131091;28;20027;-66
2022/04/24 04:40:42;;;;;;;40.33;29.08;;;;;;;10.22;100.00;99476.91;5130732;28;20399;-66
2022/04/24 04:43:08;;;;;;;41.63;28.95;;;;;;;10.25;100.00;99474.75;5112614;28;20027;-66
2022/04/24 04:45:33;;;;;;;37.53;28.08;;;;;;;10.28;100.00;99477.13;5112351;28;20023;-66
2022/04/24 04:47:59;;;;;;;38.95;27.85;;;;;;;10.31;100.00;99466.09;5130860;28;20038;-65
2022/04/24 04:50:24;;;;;;;40.47;29.17;;;;;;;10.33;100.00;99466.81;5130837;28;20474;-66
2022/04/24 04:52:50;;;;;;;42.28;30.17;;;;;;;10.41;100.00;99472.22;5131131;28;20056;-65
2022/04/24 04:55:15;;;;;;;43.72;29.15;;;;;;;10.48;100.00;99475.97;5131016;28;20042;-66
2022/04/24 04:57:41;;;;;;;42.90;29.88;;;;;;;10.54;100.00;99470.00;5112400;28;20030;-66
2022/04/24 05:00:08;;;;;;;36.80;27.38;;;;;;;10.65;100.00;99472.44;5130740;28;20426;-66
2022/04/24 05:02:37;;;;;;;40.85;28.35;;;;;;;10.68;100.00;99474.78;5130640;28;20034;-67
2022/04/24 05:05:04;;;;;;;40.47;28.17;;;;;;;10.78;100.00;99475.56;5130591;28;20022;-66
2022/04/24 05:07:30;;;;;;;43.92;29.52;;;;;;;10.88;100.00;99481.66;5132888;27;20489;-66
2022/04/24 05:09:55;;;;;;;41.42;29.70;;;;;;;10.97;100.00;99475.34;5134713;27;20019;-72
2022/04/24 05:12:27;;;;;;;41.90;30.13;;;;;;;11.01;100.00;99476.72;5116936;27;20499;-72
2022/04/24 05:14:59;;;;;;;41.80;30.45;;;;;;;10.97;100.00;99461.09;5135207;27;20046;-71
2022/04/24 05:17:24;;;;;;;41.05;28.98;;;;;;;11.08;100.00;99469.72;5135609;27;20054;-74
2022/04/24 05:19:50;;;;;;;43.15;30.73;;;;;;;11.16;100.00;99477.81;5135340;27;20124;-73
2022/04/24 05:22:15;;;;;;;42.97;31.13;;;;;;;11.26;100.00;99481.22;5117121;27;20031;-72
2022/04/24 05:24:41;;;;;;;40.97;29.42;;;;;;;11.20;100.00;99460.41;5117236;27;20023;-72
2022/04/24 05:27:07;;;;;;;40.80;29.83;;;;;;;11.41;100.00;99468.91;5135517;27;20395;-73
2022/04/24 05:29:32;;;;;;;42.63;31.23;;;;;;;11.50;100.00;99475.13;5135260;27;20023;-72
2022/04/24 05:31:57;;;;;;;40.28;29.35;;;;;;;11.62;100.00;99481.94;5135308;27;20026;-73
2022/04/24 05:34:23;;;;;;;42.13;29.08;;;;;;;11.63;100.00;99485.44;5134891;27;20065;-73
2022/04/24 05:36:48;;;;;;;42.30;29.73;;;;;;;11.68;100.00;99475.94;5116255;27;20019;-66
2022/04/24 05:39:14;;;;;;;47.60;30.42;;;;;;;11.77;100.00;99488.38;5134334;27;20390;-66
2022/04/24 05:41:39;;;;;;;40.85;29.70;;;;;;;11.74;100.00;99475.28;5116116;27;20046;-65
2022/04/24 05:44:05;;;;;;;44.92;31.30;;;;;;;11.81;100.00;99478.16;5134273;27;20027;-65
2022/04/24 05:46:30;;;;;;;42.58;30.40;;;;;;;11.87;100.00;99494.47;5134416;27;20031;-66
2022/04/24 05:48:56;;;;;;;40.97;29.50;;;;;;;11.94;100.00;99490.13;5134174;27;20019;-67
2022/04/24 05:51:22;;;;;;;42.67;31.35;;;;;;;12.04;100.00;99479.22;5134094;27;20043;-65
2022/04/24 05:53:47;;;;;;;44.40;31.00;;;;;;;12.20;100.00;99490.00;5134058;27;20080;-66
2022/04/24 05:56:13;;;;;;;39.33;30.48;;;;;;;12.20;100.00;99469.34;5134111;27;20127;-66
2022/04/24 05:58:38;;;;;;;40.50;29.90;;;;;;;12.37;100.00;99475.59;5111388;27;20035;-65
2022/04/24 06:01:03;;;;;;;38.33;28.38;;;;;;;12.54;100.00;99483.50;5113101;28;20036;-65
2022/04/24 06:03:29;;;;;;;42.40;30.63;;;;;;;12.65;100.00;99480.50;5113487;27;20056;-65
2022/04/24 06:05:55;;;;;;;36.75;28.75;;;;;;;12.82;99.16;99482.16;5117331;27;20047;-64
2022/04/24 06:08:20;;;;;;;41.03;28.55;;;;;;;13.00;99.12;99477.44;5105035;27;20459;-65
2022/04/24 06:10:46;;;;;;;39.97;28.70;;;;;;;13.13;97.30;99476.94;5104045;27;20027;-65
2022/04/24 06:13:11;;;;;;;37.72;28.13;;;;;;;13.17;96.59;99479.13;5112079;28;20053;-65
2022/04/24 06:15:39;;;;;;;38.80;29.20;;;;;;;13.12;96.31;99459.09;5119995;27;20134;-66
2022/04/24 06:18:04;;;;;;;39.58;29.30;;;;;;;13.22;95.68;99478.63;5106646;28;20513;-65
2022/04/24 06:20:30;;;;;;;35.72;27.27;;;;;;;13.27;96.13;99478.91;5114882;27;20122;-65
2022/04/24 06:22:58;;;;;;;37.13;28.15;;;;;;;13.28;95.93;99467.13;5114720;27;20027;-66
2022/04/24 06:25:24;;;;;;;38.17;28.30;;;;;;;13.35;95.70;99471.66;5114602;27;20097;-65
2022/04/24 06:27:51;;;;;;;37.28;29.48;;;;;;;13.38;95.57;99481.22;5126687;27;20052;-66
2022/04/24 06:30:18;;;;;;;37.45;30.20;;;;;;;13.38;95.72;99467.78;5113528;27;20023;-66
2022/04/24 06:32:44;;;;;;;37.60;28.02;;;;;;;13.46;95.93;99463.22;5131511;27;20352;-65
2022/04/24 06:35:14;;;;;;;41.63;29.13;;;;;;;13.55;96.31;99464.03;5118506;27;20039;-65
2022/04/24 06:37:48;;;;;;;34.60;26.90;;;;;;;13.71;95.51;99463.97;5093371;28;20035;-65
2022/04/24 06:40:15;;;;;;;36.30;27.90;;;;;;;13.91;95.88;99462.50;5130029;27;20027;-66
2022/04/24 06:43:06;;;;;;;33.58;26.63;;;;;;;14.12;95.25;99459.19;5111797;27;20035;-66
2022/04/24 06:45:36;;;;;;;35.38;27.05;;;;;;;14.34;94.13;99461.94;5111245;27;20050;-65
2022/04/24 06:48:10;;;;;;;36.45;28.08;;;;;;;14.55;93.25;99469.38;5132427;27;20019;-66
2022/04/24 06:50:37;;;;;;;33.40;26.75;;;;;;;14.73;92.78;99472.56;5131978;27;20084;-65
2022/04/24 06:53:11;;;;;;;36.15;26.67;;;;;;;14.91;91.47;99467.72;5132083;27;20056;-66
2022/04/24 06:55:38;;;;;;;;;;;;;;;15.02;90.34;99470.81;5132586;27;20027;-66
2022/04/24 06:58:05;;;;;;;38.40;26.80;;;;;;;15.22;89.52;99450.34;5107079;28;19929;-66
2022/04/24 07:00:34;;;;;;;34.05;25.02;;;;;;;15.42;89.07;99451.47;5130813;27;20025;-66
2022/04/24 07:02:59;;;;;;;32.42;25.05;;;;;;;15.58;87.63;99451.28;5102813;27;20023;-65
2022/04/24 07:05:27;;;;;;;34.97;25.52;;;;;;;15.84;86.95;99461.63;5131904;27;20810;-66
2022/04/24 07:07:53;;;;;;;33.95;26.73;;;;;;;16.04;85.51;99456.44;5132021;27;20031;-65
2022/04/24 07:10:19;;;;;;;34.40;25.50;;;;;;;16.20;84.31;99450.81;5131929;27;20528;-65
2022/04/24 07:12:49;;;;;;;36.25;26.23;;;;;;;16.39;83.50;99452.88;5131663;27;20405;-66
2022/04/24 07:15:45;;;;;;;;;;;;;;;;;;;;;
2022/04/24 07:18:11;;;;;;;30.08;24.17;;;;;;;16.88;81.19;99456.50;5122376;27;20387;-65
2022/04/24 07:20:37;;;;;;;26.48;20.80;;;;;;;17.14;80.67;99454.84;5116744;27;20028;-67
2022/04/24 07:23:05;;;;;;;25.88;21.55;;;;;;;17.40;79.72;99449.59;5111321;28;20024;-66
2022/04/24 07:25:37;;;;;;;27.00;21.83;;;;;;;17.67;77.37;99448.75;5111045;28;20077;-66
2022/04/24 07:28:03;;;;;;;26.92;20.73;;;;;;;17.91;74.58;99450.97;5129686;27;20023;-66
2022/04/24 07:30:29;;;;;;;25.80;20.35;;;;;;;18.13;73.51;99455.19;5118670;27;20020;-66
2022/04/24 07:32:56;;;;;;;24.63;20.35;;;;;;;18.36;73.33;99454.00;5111078;28;20113;-67
2022/04/24 07:35:27;;;;;;;24.38;19.42;;;;;;;18.56;72.79;99444.91;5104389;27;20035;-66
2022/04/24 07:37:53;;;;;;;20.30;17.15;;;;;;;18.84;70.37;99453.72;5129128;27;20033;-66
2022/04/24 07:40:22;;;;;;;17.13;13.30;;;;;;;19.03;67.00;99439.28;5113039;27;20019;-66
2022/04/24 07:42:50;;;;;;;14.52;11.30;;;;;;;19.28;64.04;99447.66;5131484;27;20395;-66
2022/04/24 07:45:17;;;;;;;14.15;10.32;;;;;;;19.43;63.24;99442.78;5130943;27;20033;-67
2022/04/24 07:47:45;;;;;;;15.25;10.70;;;;;;;19.66;62.83;99444.00;5130947;27;20058;-66
2022/04/24 07:50:10;;;;;;;14.88;12.18;;;;;;;19.88;62.80;99441.81;5130620;27;20669;-65
2022/04/24 07:52:36;;;;;;;16.00;13.10;;;;;;;20.05;62.25;99443.84;5130845;27;20046;-66
2022/04/24 07:55:01;;;;;;;17.90;13.07;;;;;;;20.21;61.60;99433.56;5112507;28;20134;-65
2022/04/24 07:57:27;;;;;;;14.57;10.90;;;;;;;20.45;60.06;99443.66;5124027;27;20103;-67
2022/04/24 07:59:52;;;;;;;12.23;8.50;;;;;;;20.62;59.30;99432.03;5110296;28;20022;-66
2022/04/24 08:02:18;;;;;;;11.43;9.13;;;;;;;20.77;58.76;99426.25;5110437;28;20023;-66
2022/04/24 08:04:43;;;;;;;12.25;9.30;;;;;;;21.03;57.28;99431.53;5109688;28;20043;-65
2022/04/24 08:07:09;;;;;;;10.07;8.40;;;;;;;21.15;56.03;99430.56;5110363;28;20174;-66
2022/04/24 08:09:35;;;;;;;10.68;7.65;;;;;;;21.33;55.47;99427.88;5110382;28;20089;-67
2022/04/24 08:12:01;;;;;;;9.27;6.95;;;;;;;21.64;53.75;99430.47;5110269;28;20024;-66
2022/04/24 08:14:26;;;;;;;9.27;6.88;;;;;;;21.77;53.51;99424.88;5109788;28;20536;-65
2022/04/24 08:16:51;;;;;;;11.98;7.03;;;;;;;22.03;52.59;99429.22;5120807;28;20082;-66
2022/04/24 08:19:17;;;;;;;10.45;7.38;;;;;;;22.33;51.81;99425.44;5130166;28;20024;-66
2022/04/24 08:21:42;;;;;;;8.35;6.57;;;;;;;22.74;51.18;99427.38;5111786;28;20058;-67
2022/04/24 08:24:08;;;;;;;7.80;6.43;;;;;;;23.16;49.65;99409.81;5130917;28;20027;-66
2022/04/24 08:26:33;;;;;;;9.63;6.32;;;;;;;23.89;47.90;99408.22;5130738;28;20027;-66
2022/04/24 08:28:58;;;;;;;6.43;5.47;;;;;;;24.74;45.49;99402.78;5112083;28;20031;-66
2022/04/24 08:31:24;;;;;;;7.47;5.53;;;;;;;25.58;43.30;99391.50;5130577;28;20397;-65
2022/04/24 08:33:50;;;;;;;6.85;6.15;;;;;;;26.19;41.83;99394.81;5110310;28;20036;-67
2022/04/24 08:36:15;;;;;;;7.53;5.53;;;;;;;26.69;40.49;99396.44;5109589;28;20171;-67
2022/04/24 08:38:41;;;;;;;6.82;5.53;;;;;;;27.00;39.96;99390.94;5091781;28;20433;-67
2022/04/24 08:41:09;;;;;;;5.75;4.85;;;;;;;26.87;40.20;99385.88;5111758;28;20032;-66
2022/04/24 08:43:34;;;;;;;5.60;5.10;;;;;;;26.79;40.53;99388.28;5095645;28;20067;-65
2022/04/24 08:46:02;;;;;;;9.88;5.38;;;;;;;26.53;40.82;99381.66;5133517;27;20058;-65
2022/04/24 08:48:28;;;;;;;10.93;6.03;;;;;;;26.28;40.96;99378.66;5131257;27;20075;-66
2022/04/24 08:50:55;;;;;;;6.28;4.28;;;;;;;26.03;41.62;99378.38;5127225;27;20039;-66
2022/04/24 08:53:21;;;;;;;6.55;5.22;;;;;;;25.77;42.47;99357.16;5106235;28;20088;-67
2022/04/24 08:55:46;;;;;;;5.88;5.28;;;;;;;25.55;42.41;99356.31;5109753;27;20058;-66
2022/04/24 08:58:12;;;;;;;7.10;5.65;;;;;;;25.49;43.35;99365.56;5116060;27;20054;-67
2022/04/24 09:00:38;;;;;;;8.05;4.88;;;;;;;25.40;43.73;99361.56;5097770;28;20353;-66
2022/04/24 09:03:04;;;;;;;4.30;3.50;;;;;;;25.32;44.00;99365.63;5115329;27;20520;-67
2022/04/24 09:05:30;;;;;;;4.18;3.35;;;;;;;25.13;43.13;99358.69;5130881;27;20023;-74
2022/04/24 09:08:09;;;;;;;6.55;3.30;;;;;;;25.20;42.77;99370.34;5127914;27;20031;-74
2022/04/24 09:10:57;;;;;;;4.57;3.67;;;;;;;25.15;42.42;99377.66;5119657;27;20058;-74
2022/04/24 09:14:14;;;;;;;4.88;4.18;;;;;;;25.03;42.96;99363.19;5127267;27;20039;-74
2022/04/24 09:17:04;;;;;;;5.75;3.80;;;;;;;24.91;43.02;99370.69;5120809;27;20047;-78
2022/04/24 09:19:44;;;;;;;4.05;3.10;;;;;;;24.65;43.29;99333.78;5104275;28;20035;-77
2022/04/24 09:22:10;;;;;;;6.30;3.78;;;;;;;24.80;43.70;99363.38;5108083;27;20035;-73
2022/04/24 09:24:44;;;;;;;5.88;3.40;;;;;;;24.85;43.44;99361.53;5127037;27;20038;-69
2022/04/24 09:27:12;;;;;;;8.70;3.00;;;;;;;24.88;43.79;99368.44;5121896;27;20508;-74
2022/04/24 09:29:40;;;;;;;5.00;2.50;;;;;;;24.82;42.27;99362.03;5124842;27;20031;-74
2022/04/24 09:32:11;;;;;;;8.80;2.85;;;;;;;24.86;42.44;99356.91;5127063;27;20018;-74
2022/04/24 09:34:37;;;;;;;3.08;2.30;;;;;;;24.82;42.66;99351.06;5105520;27;20451;-71
2022/04/24 09:37:05;;;;;;;68.63;7.50;;;;;;;24.83;42.70;99339.03;5123818;27;20027;-74
2022/04/24 09:39:33;;;;;;;8.18;2.60;;;;;;;24.91;41.16;99346.00;5125669;27;20030;-73
2022/04/24 09:42:08;;;;;;;3.00;2.28;;;;;;;25.02;39.91;99342.34;5130375;27;20056;-65
2022/04/24 09:45:15;;;;;;;3.10;1.98;;;;;;;24.98;39.49;99331.03;5114868;27;20024;-69
2022/04/24 09:47:33;;;;;;;3.20;1.70;;;;;;;24.96;39.61;99340.59;5125261;27;20054;-66
2022/04/24 09:50:00;;;;;;;5.07;1.95;;;;;;;24.87;39.50;99320.16;5127095;27;20035;-66
2022/04/24 09:52:25;;;;;;;2.58;1.63;;;;;;;24.86;39.01;99327.53;5132158;27;20111;-66
2022/04/24 09:54:53;;;;;;;3.08;1.65;;;;;;;24.93;38.71;99333.72;5114598;27;20052;-67
2022/04/24 09:57:22;;;;;;;3.10;2.10;;;;;;;25.02;39.17;99323.94;5130017;27;20079;-67
2022/04/24 09:59:48;;;;;;;4.13;1.75;;;;;;;24.98;38.61;99327.47;5124639;27;20032;-66
2022/04/24 10:02:18;;;;;;;3.25;1.70;;;;;;;25.05;38.07;99339.09;5124714;27;20422;-66
2022/04/24 10:04:46;;;;;;;3.40;1.73;;;;;;;25.01;38.44;99338.75;5112156;28;20097;-67
2022/04/24 10:07:13;;;;;;;4.55;1.60;;;;;;;24.98;38.72;99338.44;5101033;27;20031;-68
2022/04/24 10:09:42;;;;;;;3.30;1.73;;;;;;;24.99;37.80;99329.13;5118270;27;20073;-67
2022/04/24 10:12:11;;;;;;;4.93;2.10;;;;;;;24.95;38.31;99337.00;5123283;27;20038;-66
2022/04/24 10:15:01;;;;;;;2.85;1.65;;;;;;;24.98;38.01;99324.72;5129639;27;20035;-66
2022/04/24 10:17:54;;;;;;;5.07;1.52;;;;;;;24.90;38.86;99336.94;5119845;27;20484;-67
2022/04/24 10:20:29;;;;;;;2.88;1.85;;;;;;;24.84;37.80;99326.13;5129901;27;20478;-66
2022/04/24 10:22:57;;;;;;;5.07;1.90;;;;;;;24.76;37.51;99326.56;5125716;27;20035;-67
2022/04/24 10:25:37;;;;;;;4.05;1.63;;;;;;;24.64;37.20;99318.44;5129637;27;20023;-67
2022/04/24 10:28:20;;;;;;;3.70;1.70;;;;;;;24.51;37.54;99307.75;5123447;27;20038;-66
2022/04/24 10:31:02;;;;;;;4.22;1.98;;;;;;;24.53;37.64;99310.25;5111683;28;20104;-66
2022/04/24 10:33:30;;;;;;;3.80;2.15;;;;;;;24.42;38.32;99320.19;5111699;28;20610;-67
2022/04/24 10:36:06;;;;;;;2.50;1.65;;;;;;;24.35;38.81;99306.63;5106888;27;20501;-67
2022/04/24 10:38:44;;;;;;;5.03;2.33;;;;;;;24.33;38.87;99313.47;5126803;27;20061;-69
2022/04/24 10:41:18;;;;;;;4.85;2.22;;;;;;;24.19;39.42;99310.19;5125139;27;20487;-67
2022/04/24 10:43:48;;;;;;;7.57;1.95;;;;;;;24.06;39.94;99298.72;5129431;27;20692;-67
2022/04/24 10:46:28;;;;;;;4.57;1.70;;;;;;;24.01;39.22;99315.06;5131749;27;20031;-67
2022/04/24 10:49:05;;;;;;;4.22;1.92;;;;;;;23.91;39.46;99309.34;5113864;27;20039;-67
2022/04/24 10:51:32;;;;;;;3.33;1.55;;;;;;;23.90;39.06;99315.91;5105131;27;20368;-67
2022/04/24 10:54:07;;;;;;;3.65;1.55;;;;;;;23.77;39.49;99316.22;5123836;27;20578;-67
2022/04/24 10:56:33;;;;;;;4.80;2.05;;;;;;;23.61;40.03;99323.28;5094494;28;20028;-68
2022/04/24 10:59:09;;;;;;;6.72;2.30;;;;;;;23.48;40.76;99323.56;5097340;27;20035;-67
2022/04/24 11:01:35;;;;;;;6.03;2.25;;;;;;;23.31;41.26;99324.56;5097890;27;20526;-76
2022/04/24 11:04:06;;;;;;;7.50;2.00;;;;;;;23.16;43.80;99351.53;5118726;27;20093;-74
2022/04/24 11:06:31;;;;;;;8.13;2.20;;;;;;;22.93;46.58;99351.53;5118576;27;20026;-73
2022/04/24 11:09:09;;;;;;;6.43;2.13;;;;;;;22.60;46.39;99373.94;5116966;27;20106;-72
2022/04/24 11:11:44;;;;;;;4.68;1.48;;;;;;;22.18;48.34;99377.72;5117682;27;20035;-73
2022/04/24 11:14:10;;;;;;;5.47;1.80;;;;;;;21.93;49.41;99369.66;5125588;27;20048;-73
2022/04/24 11:16:35;;;;;;;5.57;1.77;;;;;;;21.70;49.11;99371.44;5105728;27;20111;-74
2022/04/24 11:19:01;;;;;;;4.72;1.30;;;;;;;21.53;50.15;99381.28;5130456;27;20077;-73
2022/04/24 11:21:27;;;;;;;4.10;1.40;;;;;;;21.24;50.72;99403.81;5106521;27;20046;-74